Omega, Georgia
Current Conditions -  °F | °C
As of 3:35 AM on Friday 28 Nov 2014 (Local Time) from KTMA Reporting Station
Clear Clear  
Wind Chill: 31°   Ceiling: Unl
Heat Index: 37°   Visibility: 10mi
Dew Point: 28°   Wind: 7mph
Humidity: 71%   Direction: 340°NNW
Pressure: 30.35"   Gusts: NA
Location:  31.34°N, 83.59°W
Report Text: KTMA 280835Z AUTO 34006KT 10SM CLR 03/M02 A3035 RMK AO2 T00271020
Loading
Personal Weather Stations






























Interactive Weather Map New forecast layout! Learn more

10-Day Weather Forecast

Advertisements
Track Severe Weather on mobile